createdAt,value
2022-12-22T00:04:55.390Z,9.88
2022-12-22T00:10:15.996Z,8.55
2022-12-22T00:15:36.977Z,6.22
2022-12-22T00:20:57.555Z,12.40
2022-12-22T00:26:18.029Z,8.80
2022-12-22T00:31:39.363Z,9.55
2022-12-22T00:37:00.007Z,10.57
2022-12-22T00:42:20.315Z,7.38
2022-12-22T00:47:47.006Z,9.48
2022-12-22T00:53:07.512Z,9.23
2022-12-22T00:58:36.324Z,7.90
2022-12-22T01:03:56.851Z,9.88
2022-12-22T01:09:17.873Z,8.48
2022-12-22T01:14:38.439Z,7.47
2022-12-22T01:19:59.167Z,10.80
2022-12-22T01:25:19.293Z,11.13
2022-12-22T01:30:40.012Z,10.80
2022-12-22T01:36:00.764Z,8.88
2022-12-22T01:46:51.447Z,9.68
2022-12-22T01:52:11.733Z,9.40
2022-12-22T01:57:33.567Z,13.20
2022-12-22T02:02:54.251Z,8.15
2022-12-22T02:14:01.780Z,8.68
2022-12-22T02:19:37.853Z,6.75
2022-12-22T02:25:04.898Z,14.93
2022-12-22T02:30:27.143Z,10.15
2022-12-22T02:36:11.352Z,9.05
2022-12-22T02:41:37.900Z,8.23
2022-12-22T02:47:09.954Z,8.88
2022-12-22T02:52:43.729Z,8.55
2022-12-22T02:58:04.146Z,7.78
2022-12-22T03:03:24.733Z,7.47
2022-12-22T03:14:05.704Z,11.17
2022-12-22T03:19:26.080Z,10.35
2022-12-22T03:24:46.563Z,9.32
2022-12-22T03:29:48.483Z,8.13
2022-12-22T03:34:50.255Z,7.25
2022-12-22T03:39:52.024Z,9.52
2022-12-22T03:45:12.124Z,7.20
2022-12-22T03:50:13.961Z,7.03
2022-12-22T03:55:15.841Z,8.25
2022-12-22T04:00:17.826Z,8.02
2022-12-22T04:05:19.584Z,28.33
2022-12-22T04:10:39.771Z,22.83
2022-12-22T04:15:41.594Z,9.15
2022-12-22T04:20:43.375Z,16.42
2022-12-22T04:25:45.136Z,13.68
2022-12-22T04:30:51.943Z,14.07
2022-12-22T04:35:53.803Z,14.68
2022-12-22T04:40:55.593Z,12.27
2022-12-22T04:45:57.665Z,16.75
2022-12-22T04:51:00.523Z,14.15
2022-12-22T04:56:05.557Z,13.60
2022-12-22T05:01:13.038Z,6.72
2022-12-22T05:06:15.600Z,5.45
2022-12-22T05:11:17.771Z,10.07
2022-12-22T05:16:19.584Z,12.90
2022-12-22T05:21:22.907Z,16.45
2022-12-22T05:26:24.819Z,17.55
2022-12-22T05:31:27.069Z,17.45
2022-12-22T05:36:28.912Z,17.08
2022-12-22T05:41:30.676Z,25.02
2022-12-22T05:46:32.599Z,28.70
2022-12-22T05:51:34.812Z,23.85
2022-12-22T05:56:36.601Z,26.05
2022-12-22T06:01:38.513Z,27.20
2022-12-22T06:06:40.302Z,27.40
2022-12-22T06:11:42.100Z,29.30
2022-12-22T06:16:43.876Z,36.30
2022-12-22T06:21:45.832Z,32.63
2022-12-22T06:26:47.581Z,36.35
2022-12-22T06:31:49.426Z,36.13
2022-12-22T06:36:51.338Z,46.55
2022-12-22T06:42:11.780Z,54.22
2022-12-22T06:47:13.599Z,40.53
2022-12-22T06:52:15.435Z,48.20
2022-12-22T06:57:17.227Z,50.53
2022-12-22T07:02:19.247Z,60.17
2022-12-22T07:07:21.211Z,74.38
2022-12-22T07:12:24.270Z,80.00
2022-12-22T07:17:26.369Z,82.15
2022-12-22T07:22:30.614Z,98.78
2022-12-22T07:27:32.818Z,88.22
2022-12-22T07:32:34.573Z,86.25
2022-12-22T07:37:36.329Z,94.15
2022-12-22T07:42:47.201Z,90.40
2022-12-22T07:52:58.274Z,79.15
2022-12-22T07:58:00.108Z,77.13
2022-12-22T08:03:02.731Z,84.05
2022-12-22T08:08:04.908Z,74.88
2022-12-22T08:13:06.748Z,69.57
2022-12-22T08:18:08.915Z,72.57
2022-12-22T08:23:10.697Z,73.72
2022-12-22T08:28:15.312Z,73.93
2022-12-22T08:33:17.315Z,73.68
2022-12-22T08:38:19.101Z,85.78
2022-12-22T08:43:22.087Z,73.15
2022-12-22T08:48:23.862Z,76.18
2022-12-22T08:54:02.723Z,74.07
2022-12-22T08:58:47.464Z,71.68
2022-12-22T09:03:53.642Z,52.40
2022-12-22T09:09:00.873Z,57.67
2022-12-22T09:14:04.071Z,67.22
2022-12-22T09:19:06.866Z,61.65
2022-12-22T09:24:08.955Z,56.72
2022-12-22T09:29:10.819Z,44.25
2022-12-22T09:34:17.681Z,44.63
2022-12-22T09:39:25.140Z,53.75
2022-12-22T09:44:45.088Z,46.55
2022-12-22T09:49:46.988Z,37.58
2022-12-22T09:54:49.757Z,46.40
2022-12-22T09:59:51.716Z,47.25
2022-12-22T10:05:06.635Z,36.83
2022-12-22T10:10:27.674Z,32.60
2022-12-22T10:15:41.258Z,35.63
2022-12-22T10:20:46.471Z,35.25
2022-12-22T10:26:27.549Z,30.35
2022-12-22T10:31:27.979Z,28.60
2022-12-22T10:36:32.991Z,31.90
2022-12-22T10:41:45.770Z,40.53
2022-12-22T10:46:56.459Z,29.92
2022-12-22T10:52:27.353Z,32.08
2022-12-22T10:57:31.656Z,29.55
2022-12-22T11:02:39.085Z,26.48
2022-12-22T11:07:44.488Z,35.45
2022-12-22T11:12:57.674Z,21.40
2022-12-22T11:18:08.410Z,22.40
2022-12-22T11:23:29.789Z,16.85
2022-12-22T11:28:43.838Z,22.02
2022-12-22T11:34:23.304Z,14.27
2022-12-22T11:39:47.287Z,17.67
2022-12-22T11:45:01.114Z,15.75
2022-12-22T11:50:59.041Z,14.45
2022-12-22T11:56:14.344Z,8.00
2022-12-22T12:01:31.269Z,9.98
2022-12-22T12:07:12.344Z,7.25
2022-12-22T12:13:01.462Z,5.32
2022-12-22T12:18:15.593Z,6.82
2022-12-22T12:23:50.433Z,7.15
2022-12-22T12:29:07.092Z,6.97
2022-12-22T12:34:15.800Z,4.28
2022-12-22T12:39:45.509Z,3.33
2022-12-22T12:44:47.979Z,3.90
2022-12-22T12:49:57.441Z,5.90
2022-12-22T12:55:34.146Z,3.53
2022-12-22T13:00:35.895Z,4.00
2022-12-22T13:05:55.025Z,5.22
2022-12-22T13:10:56.918Z,2.63
2022-12-22T13:16:01.833Z,6.50
2022-12-22T13:21:42.470Z,5.32
2022-12-22T13:26:40.648Z,3.88
2022-12-22T13:31:48.482Z,5.65
2022-12-22T13:36:51.385Z,6.32
2022-12-22T13:41:54.645Z,2.75
2022-12-22T13:47:02.638Z,3.97
2022-12-22T13:52:05.769Z,3.10
2022-12-22T13:57:21.094Z,3.05
2022-12-22T14:02:22.940Z,6.18
2022-12-22T14:07:24.868Z,4.32
2022-12-22T14:12:30.312Z,5.75
2022-12-22T14:17:38.498Z,6.47
2022-12-22T14:22:45.842Z,7.70
2022-12-22T14:27:50.767Z,5.95
2022-12-22T14:32:57.621Z,5.78
2022-12-22T14:38:05.390Z,7.13
2022-12-22T14:43:16.527Z,8.98
2022-12-22T14:48:26.726Z,8.82
2022-12-22T14:53:49.835Z,13.80
2022-12-22T14:58:51.709Z,12.13
2022-12-22T15:04:17.765Z,13.43
2022-12-22T15:09:39.645Z,14.32
2022-12-22T15:14:42.313Z,16.08
2022-12-22T15:19:44.083Z,17.88
2022-12-22T15:24:47.138Z,24.77
2022-12-22T15:29:48.903Z,20.42
2022-12-22T15:34:50.655Z,30.60
2022-12-22T15:39:52.511Z,30.70
2022-12-22T15:44:54.325Z,33.65
2022-12-22T15:49:56.158Z,34.08
2022-12-22T15:55:01.288Z,29.58
2022-12-22T16:00:03.861Z,35.58
2022-12-22T16:05:06.356Z,47.80
2022-12-22T16:10:20.616Z,41.55
2022-12-22T16:15:22.570Z,49.25
2022-12-22T16:20:25.987Z,49.58
2022-12-22T16:25:34.071Z,39.88
2022-12-22T16:30:35.859Z,44.15
2022-12-22T16:35:37.794Z,46.88
2022-12-22T16:40:45.844Z,49.35
2022-12-22T16:45:48.256Z,42.53
2022-12-22T16:50:50.045Z,56.65
2022-12-22T16:55:51.823Z,51.50
2022-12-22T17:00:54.078Z,56.60
2022-12-22T17:06:01.124Z,48.13
2022-12-22T17:11:10.393Z,59.97
2022-12-22T17:16:19.908Z,45.45
2022-12-22T17:21:22.759Z,58.42
2022-12-22T17:26:26.040Z,55.17
2022-12-22T17:31:28.005Z,66.40
2022-12-22T17:36:36.810Z,59.92
2022-12-22T17:41:38.659Z,74.72
2022-12-22T17:46:40.610Z,44.78
2022-12-22T17:51:42.937Z,50.30
2022-12-22T17:56:44.759Z,44.85
2022-12-22T18:01:46.694Z,65.50
2022-12-22T18:06:48.920Z,36.42
2022-12-22T18:11:51.356Z,31.70
2022-12-22T18:16:53.281Z,48.42
2022-12-22T18:21:55.119Z,44.13
2022-12-22T18:26:57.374Z,41.25
2022-12-22T18:31:59.383Z,43.30
2022-12-22T18:37:02.859Z,55.83
2022-12-22T18:42:21.291Z,29.63
2022-12-22T18:47:23.793Z,22.80
2022-12-22T18:52:25.734Z,35.40
2022-12-22T18:57:27.671Z,24.58
2022-12-22T19:02:30.571Z,34.95
2022-12-22T19:07:32.527Z,33.03
2022-12-22T19:12:35.200Z,25.73
2022-12-22T19:17:37.092Z,28.40
2022-12-22T19:22:38.932Z,28.35
2022-12-22T19:27:41.184Z,37.25
2022-12-22T19:32:48.026Z,29.50
2022-12-22T19:37:52.635Z,23.75
2022-12-22T19:42:56.585Z,23.45
2022-12-22T19:47:58.449Z,26.05
2022-12-22T19:53:00.849Z,25.05
2022-12-22T19:58:03.188Z,28.52
2022-12-22T20:03:06.579Z,20.95
2022-12-22T20:08:08.598Z,24.08
2022-12-22T20:13:21.240Z,17.20
2022-12-22T20:18:27.399Z,23.45
2022-12-22T20:23:33.227Z,20.88
2022-12-22T20:28:40.200Z,21.65
2022-12-22T20:33:42.283Z,24.67
2022-12-22T20:38:46.332Z,21.30
2022-12-22T20:43:49.029Z,29.45
2022-12-22T20:48:56.173Z,19.92
2022-12-22T20:53:58.765Z,17.85
2022-12-22T20:59:12.118Z,20.20
2022-12-22T21:04:15.039Z,21.15
2022-12-22T21:09:17.761Z,18.02
2022-12-22T21:14:19.716Z,22.70
2022-12-22T21:19:21.561Z,16.42
2022-12-22T21:24:23.375Z,22.10
2022-12-22T21:29:27.250Z,22.33
2022-12-22T21:34:28.997Z,20.33
2022-12-22T21:39:41.860Z,15.10
2022-12-22T21:44:45.239Z,16.80
2022-12-22T21:49:47.285Z,18.85
2022-12-22T21:54:49.049Z,16.95
2022-12-22T21:59:50.835Z,13.68
2022-12-22T22:04:55.231Z,18.63
2022-12-22T22:09:57.351Z,17.60
2022-12-22T22:15:00.880Z,21.40
2022-12-22T22:20:03.124Z,16.25
2022-12-22T22:25:05.510Z,13.70
2022-12-22T22:30:12.042Z,15.38
2022-12-22T22:35:14.292Z,24.17
2022-12-22T22:40:17.113Z,17.40
2022-12-22T22:45:23.229Z,12.65
2022-12-22T22:50:25.419Z,16.63
2022-12-22T22:55:27.160Z,15.38
2022-12-22T23:00:28.952Z,22.13
2022-12-22T23:05:30.904Z,21.23
2022-12-22T23:10:37.784Z,17.83
2022-12-22T23:15:43.120Z,14.90
2022-12-22T23:20:45.317Z,26.83
2022-12-22T23:25:50.393Z,26.35
2022-12-22T23:30:53.098Z,21.80
2022-12-22T23:35:54.857Z,18.00
2022-12-22T23:41:04.652Z,24.70
2022-12-22T23:46:12.292Z,13.50
2022-12-22T23:51:14.148Z,24.02
2022-12-22T23:56:16.678Z,19.15
